sensor_id;sensor_type;location;lat;lon;timestamp;P1;durP1;ratioP1;P2;durP2;ratioP2
35488;SDS011;21602;55.670;37.578;2023-12-20T00:00:16;1.55;;;1.40;;
35488;SDS011;21602;55.670;37.578;2023-12-20T00:02:42;2.40;;;1.33;;
35488;SDS011;21602;55.670;37.578;2023-12-20T00:05:12;3.88;;;1.65;;
35488;SDS011;21602;55.670;37.578;2023-12-20T00:07:39;3.17;;;1.52;;
35488;SDS011;21602;55.670;37.578;2023-12-20T00:10:05;1.30;;;1.13;;
35488;SDS011;21602;55.670;37.578;2023-12-20T00:12:32;1.52;;;1.42;;
35488;SDS011;21602;55.670;37.578;2023-12-20T00:14:58;1.23;;;1.13;;
35488;SDS011;21602;55.670;37.578;2023-12-20T00:17:24;1.27;;;1.15;;
35488;SDS011;21602;55.670;37.578;2023-12-20T00:19:49;1.60;;;1.50;;
35488;SDS011;21602;55.670;37.578;2023-12-20T00:22:15;1.75;;;1.50;;
35488;SDS011;21602;55.670;37.578;2023-12-20T00:24:41;2.20;;;1.48;;
35488;SDS011;21602;55.670;37.578;2023-12-20T00:27:07;1.58;;;1.35;;
35488;SDS011;21602;55.670;37.578;2023-12-20T00:29:34;2.35;;;2.15;;
35488;SDS011;21602;55.670;37.578;2023-12-20T00:31:59;2.70;;;1.70;;
35488;SDS011;21602;55.670;37.578;2023-12-20T00:34:25;1.60;;;1.50;;
35488;SDS011;21602;55.670;37.578;2023-12-20T00:36:51;2.00;;;1.80;;
35488;SDS011;21602;55.670;37.578;2023-12-20T00:39:17;1.73;;;1.63;;
35488;SDS011;21602;55.670;37.578;2023-12-20T00:41:43;1.98;;;1.80;;
35488;SDS011;21602;55.670;37.578;2023-12-20T00:44:09;2.35;;;1.42;;
35488;SDS011;21602;55.670;37.578;2023-12-20T00:46:35;2.17;;;1.98;;
35488;SDS011;21602;55.670;37.578;2023-12-20T00:49:01;2.38;;;2.00;;
35488;SDS011;21602;55.670;37.578;2023-12-20T00:51:27;2.95;;;2.13;;
35488;SDS011;21602;55.670;37.578;2023-12-20T00:53:54;2.10;;;1.90;;
35488;SDS011;21602;55.670;37.578;2023-12-20T00:56:20;1.88;;;1.70;;
35488;SDS011;21602;55.670;37.578;2023-12-20T00:58:46;5.38;;;2.47;;
35488;SDS011;21602;55.670;37.578;2023-12-20T01:01:12;2.20;;;2.00;;
35488;SDS011;21602;55.670;37.578;2023-12-20T01:03:39;2.28;;;2.08;;
35488;SDS011;21602;55.670;37.578;2023-12-20T01:06:04;2.30;;;2.00;;
35488;SDS011;21602;55.670;37.578;2023-12-20T01:08:30;3.10;;;2.15;;
35488;SDS011;21602;55.670;37.578;2023-12-20T01:10:56;2.25;;;2.05;;
35488;SDS011;21602;55.670;37.578;2023-12-20T01:13:22;2.92;;;1.92;;
35488;SDS011;21602;55.670;37.578;2023-12-20T01:15:48;2.47;;;2.28;;
35488;SDS011;21602;55.670;37.578;2023-12-20T01:18:14;4.75;;;2.13;;
35488;SDS011;21602;55.670;37.578;2023-12-20T01:20:40;4.57;;;1.67;;
35488;SDS011;21602;55.670;37.578;2023-12-20T01:23:06;2.10;;;1.88;;
35488;SDS011;21602;55.670;37.578;2023-12-20T01:25:33;2.10;;;1.90;;
35488;SDS011;21602;55.670;37.578;2023-12-20T01:27:58;3.75;;;1.90;;
35488;SDS011;21602;55.670;37.578;2023-12-20T01:30:25;2.63;;;1.55;;
35488;SDS011;21602;55.670;37.578;2023-12-20T01:32:51;2.22;;;1.70;;
35488;SDS011;21602;55.670;37.578;2023-12-20T01:35:17;2.92;;;2.00;;
35488;SDS011;21602;55.670;37.578;2023-12-20T01:37:43;1.95;;;1.63;;
35488;SDS011;21602;55.670;37.578;2023-12-20T01:40:08;2.30;;;1.73;;
35488;SDS011;21602;55.670;37.578;2023-12-20T01:42:35;1.98;;;1.50;;
35488;SDS011;21602;55.670;37.578;2023-12-20T01:45:00;2.28;;;1.60;;
35488;SDS011;21602;55.670;37.578;2023-12-20T01:47:28;4.70;;;1.73;;
35488;SDS011;21602;55.670;37.578;2023-12-20T01:49:54;1.73;;;1.33;;
35488;SDS011;21602;55.670;37.578;2023-12-20T01:52:22;1.92;;;1.60;;
35488;SDS011;21602;55.670;37.578;2023-12-20T01:54:48;3.95;;;1.27;;
35488;SDS011;21602;55.670;37.578;2023-12-20T01:57:14;2.03;;;1.35;;
35488;SDS011;21602;55.670;37.578;2023-12-20T01:59:41;2.00;;;1.50;;
35488;SDS011;21602;55.670;37.578;2023-12-20T02:02:07;5.90;;;1.45;;
35488;SDS011;21602;55.670;37.578;2023-12-20T02:04:33;1.17;;;1.08;;
35488;SDS011;21602;55.670;37.578;2023-12-20T02:06:59;0.75;;;0.75;;
35488;SDS011;21602;55.670;37.578;2023-12-20T02:09:26;2.40;;;0.90;;
35488;SDS011;21602;55.670;37.578;2023-12-20T02:11:53;2.90;;;1.63;;
35488;SDS011;21602;55.670;37.578;2023-12-20T02:14:19;1.35;;;0.90;;
35488;SDS011;21602;55.670;37.578;2023-12-20T02:16:45;1.80;;;0.90;;
35488;SDS011;21602;55.670;37.578;2023-12-20T02:19:13;1.35;;;0.80;;
35488;SDS011;21602;55.670;37.578;2023-12-20T02:21:40;2.10;;;1.00;;
35488;SDS011;21602;55.670;37.578;2023-12-20T02:24:06;2.58;;;0.90;;
35488;SDS011;21602;55.670;37.578;2023-12-20T02:26:32;0.88;;;0.60;;
35488;SDS011;21602;55.670;37.578;2023-12-20T02:28:59;1.25;;;0.65;;
35488;SDS011;21602;55.670;37.578;2023-12-20T02:31:25;1.17;;;0.73;;
35488;SDS011;21602;55.670;37.578;2023-12-20T02:33:51;1.33;;;0.73;;
35488;SDS011;21602;55.670;37.578;2023-12-20T02:36:17;2.17;;;0.60;;
35488;SDS011;21602;55.670;37.578;2023-12-20T02:38:43;3.03;;;1.00;;
35488;SDS011;21602;55.670;37.578;2023-12-20T02:41:08;1.58;;;1.05;;
35488;SDS011;21602;55.670;37.578;2023-12-20T02:43:34;2.75;;;0.93;;
35488;SDS011;21602;55.670;37.578;2023-12-20T02:46:00;2.17;;;1.00;;
35488;SDS011;21602;55.670;37.578;2023-12-20T02:48:26;1.65;;;0.98;;
35488;SDS011;21602;55.670;37.578;2023-12-20T02:50:52;3.63;;;1.15;;
35488;SDS011;21602;55.670;37.578;2023-12-20T02:53:18;1.52;;;1.42;;
35488;SDS011;21602;55.670;37.578;2023-12-20T02:55:44;2.15;;;1.23;;
35488;SDS011;21602;55.670;37.578;2023-12-20T02:58:10;3.08;;;1.80;;
35488;SDS011;21602;55.670;37.578;2023-12-20T03:00:36;5.47;;;2.13;;
35488;SDS011;21602;55.670;37.578;2023-12-20T03:03:02;5.05;;;1.80;;
35488;SDS011;21602;55.670;37.578;2023-12-20T03:05:28;2.33;;;1.55;;
35488;SDS011;21602;55.670;37.578;2023-12-20T03:07:54;3.28;;;2.10;;
35488;SDS011;21602;55.670;37.578;2023-12-20T03:10:20;2.50;;;2.15;;
35488;SDS011;21602;55.670;37.578;2023-12-20T03:12:46;2.28;;;2.08;;
35488;SDS011;21602;55.670;37.578;2023-12-20T03:15:12;1.88;;;1.77;;
35488;SDS011;21602;55.670;37.578;2023-12-20T03:17:37;2.03;;;1.83;;
35488;SDS011;21602;55.670;37.578;2023-12-20T03:20:03;4.20;;;3.00;;
35488;SDS011;21602;55.670;37.578;2023-12-20T03:22:29;2.10;;;1.90;;
35488;SDS011;21602;55.670;37.578;2023-12-20T03:24:55;2.08;;;1.77;;
35488;SDS011;21602;55.670;37.578;2023-12-20T03:27:21;2.40;;;2.10;;
35488;SDS011;21602;55.670;37.578;2023-12-20T03:29:47;3.30;;;2.00;;
35488;SDS011;21602;55.670;37.578;2023-12-20T03:32:13;3.45;;;2.13;;
35488;SDS011;21602;55.670;37.578;2023-12-20T03:34:38;2.05;;;1.88;;
35488;SDS011;21602;55.670;37.578;2023-12-20T03:37:04;5.70;;;2.00;;
35488;SDS011;21602;55.670;37.578;2023-12-20T03:39:30;4.05;;;2.60;;
35488;SDS011;21602;55.670;37.578;2023-12-20T03:41:56;2.97;;;2.28;;
35488;SDS011;21602;55.670;37.578;2023-12-20T03:44:21;4.13;;;2.30;;
35488;SDS011;21602;55.670;37.578;2023-12-20T03:46:47;2.15;;;1.92;;
35488;SDS011;21602;55.670;37.578;2023-12-20T03:49:14;2.72;;;2.15;;
35488;SDS011;21602;55.670;37.578;2023-12-20T03:51:40;3.17;;;2.50;;
35488;SDS011;21602;55.670;37.578;2023-12-20T03:54:07;3.45;;;2.28;;
35488;SDS011;21602;55.670;37.578;2023-12-20T03:56:33;2.78;;;2.08;;
35488;SDS011;21602;55.670;37.578;2023-12-20T03:58:59;4.72;;;2.53;;
35488;SDS011;21602;55.670;37.578;2023-12-20T04:01:25;3.35;;;2.20;;
35488;SDS011;21602;55.670;37.578;2023-12-20T04:03:51;4.78;;;2.70;;
35488;SDS011;21602;55.670;37.578;2023-12-20T04:06:20;4.07;;;2.63;;
35488;SDS011;21602;55.670;37.578;2023-12-20T04:08:45;4.95;;;2.92;;
35488;SDS011;21602;55.670;37.578;2023-12-20T04:11:13;4.45;;;3.05;;
35488;SDS011;21602;55.670;37.578;2023-12-20T04:13:38;4.07;;;3.00;;
35488;SDS011;21602;55.670;37.578;2023-12-20T04:16:04;4.85;;;3.20;;
35488;SDS011;21602;55.670;37.578;2023-12-20T04:18:31;6.38;;;3.83;;
35488;SDS011;21602;55.670;37.578;2023-12-20T04:20:57;5.13;;;3.03;;
35488;SDS011;21602;55.670;37.578;2023-12-20T04:23:23;5.40;;;3.05;;
35488;SDS011;21602;55.670;37.578;2023-12-20T04:25:49;3.72;;;2.83;;
35488;SDS011;21602;55.670;37.578;2023-12-20T04:28:15;4.50;;;3.00;;
35488;SDS011;21602;55.670;37.578;2023-12-20T04:30:41;4.25;;;2.55;;
35488;SDS011;21602;55.670;37.578;2023-12-20T04:33:07;4.85;;;2.97;;
35488;SDS011;21602;55.670;37.578;2023-12-20T04:35:33;6.47;;;3.10;;
35488;SDS011;21602;55.670;37.578;2023-12-20T04:37:59;3.70;;;3.05;;
35488;SDS011;21602;55.670;37.578;2023-12-20T04:40:26;3.92;;;3.30;;
35488;SDS011;21602;55.670;37.578;2023-12-20T04:42:52;6.00;;;3.92;;
35488;SDS011;21602;55.670;37.578;2023-12-20T04:45:17;5.85;;;3.03;;
35488;SDS011;21602;55.670;37.578;2023-12-20T04:47:45;7.38;;;3.08;;
35488;SDS011;21602;55.670;37.578;2023-12-20T04:50:12;10.25;;;3.72;;
35488;SDS011;21602;55.670;37.578;2023-12-20T04:52:38;8.30;;;2.80;;
35488;SDS011;21602;55.670;37.578;2023-12-20T04:55:04;5.30;;;2.65;;
35488;SDS011;21602;55.670;37.578;2023-12-20T04:57:30;4.03;;;2.88;;
35488;SDS011;21602;55.670;37.578;2023-12-20T04:59:56;4.15;;;2.08;;
35488;SDS011;21602;55.670;37.578;2023-12-20T05:02:22;2.88;;;1.95;;
35488;SDS011;21602;55.670;37.578;2023-12-20T05:04:48;3.15;;;1.80;;
35488;SDS011;21602;55.670;37.578;2023-12-20T05:07:14;4.32;;;1.70;;
35488;SDS011;21602;55.670;37.578;2023-12-20T05:09:39;2.03;;;1.17;;
35488;SDS011;21602;55.670;37.578;2023-12-20T05:12:05;3.13;;;1.77;;
35488;SDS011;21602;55.670;37.578;2023-12-20T05:14:31;1.60;;;1.30;;
35488;SDS011;21602;55.670;37.578;2023-12-20T05:16:57;1.35;;;1.00;;
35488;SDS011;21602;55.670;37.578;2023-12-20T05:19:24;3.53;;;1.67;;
35488;SDS011;21602;55.670;37.578;2023-12-20T05:21:50;2.08;;;1.52;;
35488;SDS011;21602;55.670;37.578;2023-12-20T05:24:19;4.95;;;1.92;;
35488;SDS011;21602;55.670;37.578;2023-12-20T05:26:47;3.33;;;1.98;;
35488;SDS011;21602;55.670;37.578;2023-12-20T05:29:13;2.33;;;2.00;;
35488;SDS011;21602;55.670;37.578;2023-12-20T05:31:39;2.10;;;1.60;;
35488;SDS011;21602;55.670;37.578;2023-12-20T05:34:07;4.28;;;2.30;;
35488;SDS011;21602;55.670;37.578;2023-12-20T05:36:36;2.80;;;2.15;;
35488;SDS011;21602;55.670;37.578;2023-12-20T05:39:04;2.65;;;2.45;;
35488;SDS011;21602;55.670;37.578;2023-12-20T05:41:32;3.58;;;2.65;;
35488;SDS011;21602;55.670;37.578;2023-12-20T05:43:57;4.03;;;2.70;;
35488;SDS011;21602;55.670;37.578;2023-12-20T05:46:24;3.10;;;2.80;;
35488;SDS011;21602;55.670;37.578;2023-12-20T05:48:52;3.60;;;2.72;;
35488;SDS011;21602;55.670;37.578;2023-12-20T05:51:18;4.45;;;3.20;;
35488;SDS011;21602;55.670;37.578;2023-12-20T05:53:44;5.05;;;3.08;;
35488;SDS011;21602;55.670;37.578;2023-12-20T05:56:10;6.05;;;2.63;;
35488;SDS011;21602;55.670;37.578;2023-12-20T05:58:36;3.30;;;2.67;;
35488;SDS011;21602;55.670;37.578;2023-12-20T06:01:04;6.10;;;2.83;;
35488;SDS011;21602;55.670;37.578;2023-12-20T06:03:31;4.05;;;3.00;;
35488;SDS011;21602;55.670;37.578;2023-12-20T06:05:56;5.10;;;3.03;;
35488;SDS011;21602;55.670;37.578;2023-12-20T06:08:22;4.47;;;3.33;;
35488;SDS011;21602;55.670;37.578;2023-12-20T06:10:48;3.75;;;2.53;;
35488;SDS011;21602;55.670;37.578;2023-12-20T06:13:14;5.05;;;2.60;;
35488;SDS011;21602;55.670;37.578;2023-12-20T06:15:40;4.57;;;3.10;;
35488;SDS011;21602;55.670;37.578;2023-12-20T06:20:35;7.75;;;2.85;;
35488;SDS011;21602;55.670;37.578;2023-12-20T06:23:04;7.35;;;3.28;;
35488;SDS011;21602;55.670;37.578;2023-12-20T06:25:30;5.35;;;2.80;;
35488;SDS011;21602;55.670;37.578;2023-12-20T06:30:24;6.63;;;2.35;;
35488;SDS011;21602;55.670;37.578;2023-12-20T06:32:51;3.65;;;2.55;;
35488;SDS011;21602;55.670;37.578;2023-12-20T06:35:20;4.38;;;2.75;;
35488;SDS011;21602;55.670;37.578;2023-12-20T06:37:50;4.38;;;2.20;;
35488;SDS011;21602;55.670;37.578;2023-12-20T06:40:21;5.60;;;1.90;;
35488;SDS011;21602;55.670;37.578;2023-12-20T06:42:47;3.05;;;2.08;;
35488;SDS011;21602;55.670;37.578;2023-12-20T06:45:13;5.55;;;2.03;;
35488;SDS011;21602;55.670;37.578;2023-12-20T06:47:39;5.80;;;2.38;;
35488;SDS011;21602;55.670;37.578;2023-12-20T06:50:09;4.43;;;2.58;;
35488;SDS011;21602;55.670;37.578;2023-12-20T06:52:36;4.85;;;2.10;;
35488;SDS011;21602;55.670;37.578;2023-12-20T06:55:03;4.67;;;2.20;;
35488;SDS011;21602;55.670;37.578;2023-12-20T06:57:29;2.63;;;1.95;;
35488;SDS011;21602;55.670;37.578;2023-12-20T06:59:55;4.70;;;2.28;;
35488;SDS011;21602;55.670;37.578;2023-12-20T07:02:23;6.78;;;2.40;;
35488;SDS011;21602;55.670;37.578;2023-12-20T07:04:49;4.95;;;2.88;;
35488;SDS011;21602;55.670;37.578;2023-12-20T07:07:14;4.93;;;2.35;;
35488;SDS011;21602;55.670;37.578;2023-12-20T07:09:40;6.57;;;2.80;;
35488;SDS011;21602;55.670;37.578;2023-12-20T07:12:08;4.35;;;2.28;;
35488;SDS011;21602;55.670;37.578;2023-12-20T07:14:34;4.13;;;2.25;;
35488;SDS011;21602;55.670;37.578;2023-12-20T07:17:00;4.75;;;2.67;;
35488;SDS011;21602;55.670;37.578;2023-12-20T07:19:26;3.80;;;2.55;;
35488;SDS011;21602;55.670;37.578;2023-12-20T07:21:52;5.05;;;2.28;;
35488;SDS011;21602;55.670;37.578;2023-12-20T07:24:18;2.17;;;1.98;;
35488;SDS011;21602;55.670;37.578;2023-12-20T07:26:44;6.30;;;1.98;;
35488;SDS011;21602;55.670;37.578;2023-12-20T07:29:10;2.75;;;2.05;;
35488;SDS011;21602;55.670;37.578;2023-12-20T07:31:36;2.50;;;2.10;;
35488;SDS011;21602;55.670;37.578;2023-12-20T07:34:02;4.03;;;2.45;;
35488;SDS011;21602;55.670;37.578;2023-12-20T07:36:28;2.35;;;1.95;;
35488;SDS011;21602;55.670;37.578;2023-12-20T07:38:54;3.53;;;2.10;;
35488;SDS011;21602;55.670;37.578;2023-12-20T07:41:20;3.95;;;2.42;;
35488;SDS011;21602;55.670;37.578;2023-12-20T07:43:46;3.83;;;2.60;;
35488;SDS011;21602;55.670;37.578;2023-12-20T07:46:12;2.10;;;1.75;;
35488;SDS011;21602;55.670;37.578;2023-12-20T07:48:40;2.65;;;2.20;;
35488;SDS011;21602;55.670;37.578;2023-12-20T07:51:06;2.47;;;1.55;;
35488;SDS011;21602;55.670;37.578;2023-12-20T07:53:34;6.10;;;1.77;;
35488;SDS011;21602;55.670;37.578;2023-12-20T07:56:00;2.65;;;1.67;;
35488;SDS011;21602;55.670;37.578;2023-12-20T07:58:26;2.15;;;1.75;;
35488;SDS011;21602;55.670;37.578;2023-12-20T08:00:52;3.00;;;1.52;;
35488;SDS011;21602;55.670;37.578;2023-12-20T08:03:18;2.97;;;1.67;;
35488;SDS011;21602;55.670;37.578;2023-12-20T08:05:44;2.63;;;1.77;;
35488;SDS011;21602;55.670;37.578;2023-12-20T08:08:10;2.30;;;1.58;;
35488;SDS011;21602;55.670;37.578;2023-12-20T08:10:36;2.05;;;1.70;;
35488;SDS011;21602;55.670;37.578;2023-12-20T08:13:02;2.45;;;1.77;;
35488;SDS011;21602;55.670;37.578;2023-12-20T08:15:31;2.10;;;1.60;;
35488;SDS011;21602;55.670;37.578;2023-12-20T08:17:57;4.15;;;2.30;;
35488;SDS011;21602;55.670;37.578;2023-12-20T08:20:23;3.20;;;1.88;;
35488;SDS011;21602;55.670;37.578;2023-12-20T08:22:49;1.95;;;1.60;;
35488;SDS011;21602;55.670;37.578;2023-12-20T08:25:15;3.88;;;1.73;;
35488;SDS011;21602;55.670;37.578;2023-12-20T08:27:44;4.25;;;2.88;;
35488;SDS011;21602;55.670;37.578;2023-12-20T08:30:11;3.20;;;2.00;;
35488;SDS011;21602;55.670;37.578;2023-12-20T08:32:37;3.17;;;1.90;;
35488;SDS011;21602;55.670;37.578;2023-12-20T08:35:07;2.88;;;1.75;;
35488;SDS011;21602;55.670;37.578;2023-12-20T08:37:34;2.85;;;1.50;;
35488;SDS011;21602;55.670;37.578;2023-12-20T08:40:01;3.63;;;1.83;;
35488;SDS011;21602;55.670;37.578;2023-12-20T08:45:34;2.72;;;1.70;;
35488;SDS011;21602;55.670;37.578;2023-12-20T08:48:00;4.32;;;2.17;;
35488;SDS011;21602;55.670;37.578;2023-12-20T08:50:32;3.05;;;1.70;;
35488;SDS011;21602;55.670;37.578;2023-12-20T08:53:01;2.72;;;1.90;;
35488;SDS011;21602;55.670;37.578;2023-12-20T08:55:27;3.58;;;1.95;;
35488;SDS011;21602;55.670;37.578;2023-12-20T08:57:54;2.95;;;2.00;;
35488;SDS011;21602;55.670;37.578;2023-12-20T09:00:20;3.90;;;1.92;;
35488;SDS011;21602;55.670;37.578;2023-12-20T09:02:58;3.75;;;1.90;;
35488;SDS011;21602;55.670;37.578;2023-12-20T09:05:24;3.10;;;2.15;;
35488;SDS011;21602;55.670;37.578;2023-12-20T09:07:55;4.97;;;2.00;;
35488;SDS011;21602;55.670;37.578;2023-12-20T09:10:21;2.83;;;1.90;;
35488;SDS011;21602;55.670;37.578;2023-12-20T09:12:58;2.30;;;1.80;;
35488;SDS011;21602;55.670;37.578;2023-12-20T09:15:28;3.42;;;2.20;;
35488;SDS011;21602;55.670;37.578;2023-12-20T09:17:56;2.30;;;1.65;;
35488;SDS011;21602;55.670;37.578;2023-12-20T09:20:24;3.63;;;2.53;;
35488;SDS011;21602;55.670;37.578;2023-12-20T09:22:56;3.63;;;2.40;;
35488;SDS011;21602;55.670;37.578;2023-12-20T09:25:23;4.35;;;2.10;;
35488;SDS011;21602;55.670;37.578;2023-12-20T09:27:54;6.72;;;2.60;;
35488;SDS011;21602;55.670;37.578;2023-12-20T09:30:20;6.10;;;2.55;;
35488;SDS011;21602;55.670;37.578;2023-12-20T09:32:49;3.90;;;2.55;;
35488;SDS011;21602;55.670;37.578;2023-12-20T09:35:19;2.83;;;2.35;;
35488;SDS011;21602;55.670;37.578;2023-12-20T09:37:44;4.50;;;2.70;;
35488;SDS011;21602;55.670;37.578;2023-12-20T09:40:13;5.00;;;2.03;;
35488;SDS011;21602;55.670;37.578;2023-12-20T09:42:56;4.50;;;2.55;;
35488;SDS011;21602;55.670;37.578;2023-12-20T09:45:38;1.98;;;1.75;;
35488;SDS011;21602;55.670;37.578;2023-12-20T09:48:09;4.70;;;2.00;;
35488;SDS011;21602;55.670;37.578;2023-12-20T09:50:36;3.72;;;2.55;;
35488;SDS011;21602;55.670;37.578;2023-12-20T09:53:02;4.95;;;1.52;;
35488;SDS011;21602;55.670;37.578;2023-12-20T09:55:30;2.58;;;1.88;;
35488;SDS011;21602;55.670;37.578;2023-12-20T09:57:59;2.85;;;2.30;;
35488;SDS011;21602;55.670;37.578;2023-12-20T10:00:25;2.40;;;2.20;;
35488;SDS011;21602;55.670;37.578;2023-12-20T10:05:31;1.85;;;1.30;;
35488;SDS011;21602;55.670;37.578;2023-12-20T10:07:57;2.17;;;1.83;;
35488;SDS011;21602;55.670;37.578;2023-12-20T10:10:26;1.63;;;1.50;;
35488;SDS011;21602;55.670;37.578;2023-12-20T10:13:09;2.65;;;1.85;;
35488;SDS011;21602;55.670;37.578;2023-12-20T10:15:37;1.80;;;1.55;;
35488;SDS011;21602;55.670;37.578;2023-12-20T10:18:04;1.70;;;1.50;;
35488;SDS011;21602;55.670;37.578;2023-12-20T10:20:30;1.70;;;1.50;;
35488;SDS011;21602;55.670;37.578;2023-12-20T10:22:57;1.85;;;1.13;;
35488;SDS011;21602;55.670;37.578;2023-12-20T10:25:24;1.60;;;1.50;;
35488;SDS011;21602;55.670;37.578;2023-12-20T10:27:57;2.17;;;1.40;;
35488;SDS011;21602;55.670;37.578;2023-12-20T10:30:40;1.73;;;1.40;;
35488;SDS011;21602;55.670;37.578;2023-12-20T10:33:07;1.83;;;1.20;;
35488;SDS011;21602;55.670;37.578;2023-12-20T10:35:33;2.47;;;1.58;;
35488;SDS011;21602;55.670;37.578;2023-12-20T10:38:03;2.78;;;1.70;;
35488;SDS011;21602;55.670;37.578;2023-12-20T10:40:36;1.83;;;1.58;;
35488;SDS011;21602;55.670;37.578;2023-12-20T10:43:02;1.75;;;1.58;;
35488;SDS011;21602;55.670;37.578;2023-12-20T10:45:29;1.30;;;1.05;;
35488;SDS011;21602;55.670;37.578;2023-12-20T10:47:55;2.67;;;1.50;;
35488;SDS011;21602;55.670;37.578;2023-12-20T10:50:24;1.48;;;1.23;;
35488;SDS011;21602;55.670;37.578;2023-12-20T10:52:52;2.00;;;1.45;;
35488;SDS011;21602;55.670;37.578;2023-12-20T10:55:24;2.90;;;1.60;;
35488;SDS011;21602;55.670;37.578;2023-12-20T10:58:08;2.35;;;1.50;;
35488;SDS011;21602;55.670;37.578;2023-12-20T11:00:37;2.20;;;1.70;;
35488;SDS011;21602;55.670;37.578;2023-12-20T11:03:05;1.80;;;1.50;;
35488;SDS011;21602;55.670;37.578;2023-12-20T11:08:49;2.28;;;1.38;;
35488;SDS011;21602;55.670;37.578;2023-12-20T11:11:40;1.95;;;1.60;;
35488;SDS011;21602;55.670;37.578;2023-12-20T11:14:49;3.15;;;1.17;;
35488;SDS011;21602;55.670;37.578;2023-12-20T11:17:16;3.22;;;1.70;;
35488;SDS011;21602;55.670;37.578;2023-12-20T11:22:22;1.75;;;1.48;;
35488;SDS011;21602;55.670;37.578;2023-12-20T11:24:52;3.60;;;1.50;;
35488;SDS011;21602;55.670;37.578;2023-12-20T11:27:19;3.60;;;1.60;;
35488;SDS011;21602;55.670;37.578;2023-12-20T11:29:52;2.88;;;1.65;;
35488;SDS011;21602;55.670;37.578;2023-12-20T11:34:55;2.22;;;1.40;;
35488;SDS011;21602;55.670;37.578;2023-12-20T11:37:21;2.00;;;1.45;;
35488;SDS011;21602;55.670;37.578;2023-12-20T11:39:56;2.17;;;1.70;;
35488;SDS011;21602;55.670;37.578;2023-12-20T11:42:33;3.55;;;1.42;;
35488;SDS011;21602;55.670;37.578;2023-12-20T11:45:04;2.78;;;1.13;;
35488;SDS011;21602;55.670;37.578;2023-12-20T11:47:31;2.45;;;1.63;;
35488;SDS011;21602;55.670;37.578;2023-12-20T11:49:57;1.48;;;1.13;;
35488;SDS011;21602;55.670;37.578;2023-12-20T11:52:25;4.35;;;1.75;;
35488;SDS011;21602;55.670;37.578;2023-12-20T11:54:51;2.55;;;1.80;;
35488;SDS011;21602;55.670;37.578;2023-12-20T11:57:17;2.67;;;1.55;;
35488;SDS011;21602;55.670;37.578;2023-12-20T11:59:43;1.75;;;1.42;;
35488;SDS011;21602;55.670;37.578;2023-12-20T12:02:11;4.50;;;1.92;;
35488;SDS011;21602;55.670;37.578;2023-12-20T12:04:41;2.05;;;1.63;;
35488;SDS011;21602;55.670;37.578;2023-12-20T12:07:07;7.75;;;1.90;;
35488;SDS011;21602;55.670;37.578;2023-12-20T12:09:34;2.40;;;1.50;;
35488;SDS011;21602;55.670;37.578;2023-12-20T12:12:00;5.60;;;1.50;;
35488;SDS011;21602;55.670;37.578;2023-12-20T12:14:26;2.13;;;1.63;;
35488;SDS011;21602;55.670;37.578;2023-12-20T12:16:53;3.20;;;1.60;;
35488;SDS011;21602;55.670;37.578;2023-12-20T12:19:20;3.05;;;2.08;;
35488;SDS011;21602;55.670;37.578;2023-12-20T12:21:47;4.55;;;1.85;;
35488;SDS011;21602;55.670;37.578;2023-12-20T12:24:19;2.40;;;1.83;;
35488;SDS011;21602;55.670;37.578;2023-12-20T12:26:57;2.25;;;1.65;;
35488;SDS011;21602;55.670;37.578;2023-12-20T12:29:24;3.25;;;1.40;;
35488;SDS011;21602;55.670;37.578;2023-12-20T12:31:56;2.53;;;1.90;;
35488;SDS011;21602;55.670;37.578;2023-12-20T12:34:23;3.20;;;1.75;;
35488;SDS011;21602;55.670;37.578;2023-12-20T12:36:50;2.70;;;2.20;;
35488;SDS011;21602;55.670;37.578;2023-12-20T12:39:19;2.30;;;1.83;;
35488;SDS011;21602;55.670;37.578;2023-12-20T12:41:53;3.03;;;1.70;;
35488;SDS011;21602;55.670;37.578;2023-12-20T12:44:19;3.53;;;1.80;;
35488;SDS011;21602;55.670;37.578;2023-12-20T12:46:46;2.85;;;1.58;;
35488;SDS011;21602;55.670;37.578;2023-12-20T12:49:16;1.92;;;1.60;;
35488;SDS011;21602;55.670;37.578;2023-12-20T12:51:44;2.63;;;1.60;;
35488;SDS011;21602;55.670;37.578;2023-12-20T12:54:11;1.90;;;1.70;;
35488;SDS011;21602;55.670;37.578;2023-12-20T12:56:40;2.47;;;1.77;;
35488;SDS011;21602;55.670;37.578;2023-12-20T12:59:06;1.88;;;1.38;;
35488;SDS011;21602;55.670;37.578;2023-12-20T13:01:34;2.88;;;1.63;;
35488;SDS011;21602;55.670;37.578;2023-12-20T13:03:59;2.90;;;1.80;;
35488;SDS011;21602;55.670;37.578;2023-12-20T13:06:28;1.63;;;1.42;;
35488;SDS011;21602;55.670;37.578;2023-12-20T13:08:54;2.88;;;1.50;;
35488;SDS011;21602;55.670;37.578;2023-12-20T13:11:20;2.55;;;1.83;;
35488;SDS011;21602;55.670;37.578;2023-12-20T13:13:46;3.05;;;1.23;;
35488;SDS011;21602;55.670;37.578;2023-12-20T13:16:13;2.42;;;1.60;;
35488;SDS011;21602;55.670;37.578;2023-12-20T13:18:39;2.38;;;1.45;;
35488;SDS011;21602;55.670;37.578;2023-12-20T13:21:07;1.15;;;1.05;;
35488;SDS011;21602;55.670;37.578;2023-12-20T13:23:35;2.20;;;1.60;;
35488;SDS011;21602;55.670;37.578;2023-12-20T13:26:01;2.40;;;1.25;;
35488;SDS011;21602;55.670;37.578;2023-12-20T13:28:28;1.25;;;1.15;;
35488;SDS011;21602;55.670;37.578;2023-12-20T13:30:54;1.75;;;1.48;;
35488;SDS011;21602;55.670;37.578;2023-12-20T13:33:20;2.20;;;1.20;;
35488;SDS011;21602;55.670;37.578;2023-12-20T13:35:49;1.10;;;1.08;;
35488;SDS011;21602;55.670;37.578;2023-12-20T13:38:15;1.58;;;1.25;;
35488;SDS011;21602;55.670;37.578;2023-12-20T13:40:41;2.15;;;1.23;;
35488;SDS011;21602;55.670;37.578;2023-12-20T13:43:08;1.25;;;1.13;;
35488;SDS011;21602;55.670;37.578;2023-12-20T13:45:38;3.22;;;1.42;;
35488;SDS011;21602;55.670;37.578;2023-12-20T13:48:07;2.08;;;1.23;;
35488;SDS011;21602;55.670;37.578;2023-12-20T13:50:33;1.88;;;1.55;;
35488;SDS011;21602;55.670;37.578;2023-12-20T13:52:59;1.83;;;1.63;;
35488;SDS011;21602;55.670;37.578;2023-12-20T13:55:26;1.58;;;1.20;;
35488;SDS011;21602;55.670;37.578;2023-12-20T13:57:52;5.68;;;1.83;;
35488;SDS011;21602;55.670;37.578;2023-12-20T14:00:18;4.35;;;1.38;;
35488;SDS011;21602;55.670;37.578;2023-12-20T14:02:45;2.25;;;1.60;;
35488;SDS011;21602;55.670;37.578;2023-12-20T14:05:11;2.03;;;1.50;;
35488;SDS011;21602;55.670;37.578;2023-12-20T14:07:41;2.70;;;1.42;;
35488;SDS011;21602;55.670;37.578;2023-12-20T14:10:11;2.40;;;1.92;;
35488;SDS011;21602;55.670;37.578;2023-12-20T14:15:04;2.47;;;1.55;;
35488;SDS011;21602;55.670;37.578;2023-12-20T14:17:37;2.20;;;1.80;;
35488;SDS011;21602;55.670;37.578;2023-12-20T14:20:07;2.15;;;1.52;;
35488;SDS011;21602;55.670;37.578;2023-12-20T14:22:34;1.55;;;1.23;;
35488;SDS011;21602;55.670;37.578;2023-12-20T14:25:00;3.72;;;1.50;;
35488;SDS011;21602;55.670;37.578;2023-12-20T14:27:26;1.95;;;1.27;;
35488;SDS011;21602;55.670;37.578;2023-12-20T14:29:55;2.42;;;1.90;;
35488;SDS011;21602;55.670;37.578;2023-12-20T14:32:23;1.70;;;1.55;;
35488;SDS011;21602;55.670;37.578;2023-12-20T14:34:53;3.58;;;1.70;;
35488;SDS011;21602;55.670;37.578;2023-12-20T14:37:20;1.42;;;1.33;;
35488;SDS011;21602;55.670;37.578;2023-12-20T14:39:47;2.13;;;1.65;;
35488;SDS011;21602;55.670;37.578;2023-12-20T14:42:13;2.05;;;1.58;;
35488;SDS011;21602;55.670;37.578;2023-12-20T14:44:39;2.72;;;1.23;;
35488;SDS011;21602;55.670;37.578;2023-12-20T14:47:06;2.95;;;2.10;;
35488;SDS011;21602;55.670;37.578;2023-12-20T14:49:32;1.92;;;1.50;;
35488;SDS011;21602;55.670;37.578;2023-12-20T14:51:58;2.78;;;1.40;;
35488;SDS011;21602;55.670;37.578;2023-12-20T14:54:24;2.38;;;1.88;;